Time;durP1;ratioP1;P1;durP2;ratioP2;P2;SDS_P1;SDS_P2;PMS_P1;PMS_P2;Temp;Humidity;BMP_temperature;BMP_pressure;BME280_temperature;BME280_humidity;BME280_pressure;Samples;Min_cycle;Max_cycle;Signal;HPM_P1;HPM_P2
2022/04/15 00:00:38;;;;;;;0.88;0.70;;;9.90;79.00;;;;;;5114099;28;20070;-69
2022/04/15 00:03:06;;;;;;;0.85;0.77;;;10.00;79.10;;;;;;5079085;28;20050;-69
2022/04/15 00:08:12;;;;;;;0.93;0.70;;;9.80;79.20;;;;;;5097432;28;20134;-69
2022/04/15 00:10:40;;;;;;;1.08;0.85;;;9.80;79.30;;;;;;5113998;28;20162;-69
2022/04/15 00:13:11;;;;;;;2.17;0.77;;;9.70;79.40;;;;;;5095404;28;20040;-70
2022/04/15 00:15:37;;;;;;;;;;;9.80;79.60;;;;;;5114021;28;20096;-69
2022/04/15 00:18:03;;;;;;;1.23;0.90;;;9.60;79.50;;;;;;5079030;28;19915;-68
2022/04/15 00:20:29;;;;;;;0.75;0.70;;;9.70;79.50;;;;;;5113660;28;20047;-70
2022/04/15 00:22:58;;;;;;;1.60;0.85;;;9.60;79.60;;;;;;5095047;28;20047;-70
2022/04/15 00:25:24;;;;;;;0.88;0.70;;;9.60;79.70;;;;;;5079215;28;20042;-70
2022/04/15 00:27:51;;;;;;;0.82;0.75;;;9.60;79.80;;;;;;5094595;28;20128;-70
2022/04/15 00:30:18;;;;;;;0.68;0.65;;;9.50;79.80;;;;;;5113770;28;20044;-70
2022/04/15 00:32:43;;;;;;;1.40;0.70;;;9.50;79.90;;;;;;5095236;28;20083;-70
2022/04/15 00:35:10;;;;;;;1.35;0.70;;;9.50;79.90;;;;;;5113677;28;20059;-68
2022/04/15 00:37:37;;;;;;;0.60;0.60;;;9.40;80.00;;;;;;5113372;28;20048;-68
2022/04/15 00:40:06;;;;;;;1.00;0.80;;;9.50;80.10;;;;;;5113947;28;20043;-70
2022/04/15 00:42:32;;;;;;;0.75;0.75;;;9.40;80.10;;;;;;5113467;28;20126;-70
2022/04/15 00:44:58;;;;;;;0.80;0.70;;;9.40;80.10;;;;;;5095196;28;20074;-68
2022/04/15 00:47:58;;;;;;;1.77;0.73;;;9.40;80.10;;;;;;5113454;28;20078;-68
2022/04/15 00:50:29;;;;;;;1.15;0.90;;;9.30;80.30;;;;;;5111794;28;20055;-68
2022/04/15 00:52:58;;;;;;;;;;;9.30;80.30;;;;;;5113354;28;20118;-67
2022/04/15 00:55:25;;;;;;;1.85;0.50;;;9.30;80.30;;;;;;5095179;28;19912;-68
2022/04/15 00:57:56;;;;;;;0.77;0.70;;;9.20;80.20;;;;;;5113153;28;20039;-68
2022/04/15 01:00:23;;;;;;;0.77;0.77;;;9.20;80.30;;;;;;5113019;28;20044;-68
2022/04/15 01:02:49;;;;;;;0.70;0.60;;;9.20;80.30;;;;;;5112925;28;20370;-68
2022/04/15 01:05:16;;;;;;;0.82;0.80;;;9.20;80.40;;;;;;5113716;28;20381;-68
2022/04/15 01:07:47;;;;;;;0.60;0.57;;;9.10;80.40;;;;;;5113161;28;20043;-68
2022/04/15 01:10:14;;;;;;;;;;;9.10;80.60;;;;;;5113251;28;20466;-68
2022/04/15 01:12:45;;;;;;;0.55;0.50;;;9.10;80.50;;;;;;5112817;28;19994;-69
2022/04/15 01:15:13;;;;;;;0.77;0.60;;;9.00;80.50;;;;;;5111442;28;20070;-68
2022/04/15 01:17:40;;;;;;;0.70;0.57;;;9.00;80.50;;;;;;5111195;28;20028;-68
2022/04/15 01:20:09;;;;;;;0.70;0.70;;;8.90;80.50;;;;;;5112841;28;20040;-68
2022/04/15 01:22:43;;;;;;;0.90;0.80;;;8.90;80.70;;;;;;5112596;28;20055;-68
2022/04/15 01:25:12;;;;;;;1.20;1.00;;;8.90;80.80;;;;;;5095206;28;20063;-68
2022/04/15 01:27:40;;;;;;;0.85;0.70;;;8.80;80.80;;;;;;5112977;28;20043;-68
2022/04/15 01:30:11;;;;;;;1.17;0.70;;;8.80;80.90;;;;;;5094706;28;20472;-68
2022/04/15 01:32:36;;;;;;;1.85;0.80;;;8.80;81.00;;;;;;5113184;28;20042;-68
2022/04/15 01:35:06;;;;;;;1.25;0.85;;;8.80;81.00;;;;;;5112224;28;20027;-69
2022/04/15 01:37:32;;;;;;;0.63;0.60;;;8.70;81.00;;;;;;5094135;28;20489;-68
2022/04/15 01:39:58;;;;;;;0.88;0.70;;;8.70;81.10;;;;;;5076134;28;20047;-70
2022/04/15 01:42:25;;;;;;;2.30;0.77;;;8.60;81.10;;;;;;5112487;28;20051;-70
2022/04/15 01:44:51;;;;;;;0.80;0.80;;;8.60;81.20;;;;;;5112554;28;20179;-70
2022/04/15 01:47:17;;;;;;;0.90;0.77;;;8.70;81.20;;;;;;5112940;28;20469;-70
2022/04/15 01:49:44;;;;;;;1.70;1.10;;;8.60;81.20;;;;;;5112402;28;20086;-70
2022/04/15 01:52:10;;;;;;;1.52;1.00;;;8.60;81.30;;;;;;5112258;28;20043;-70
2022/04/15 01:54:35;;;;;;;1.30;0.90;;;8.60;81.30;;;;;;5112601;28;20028;-70
2022/04/15 01:57:02;;;;;;;1.25;1.00;;;8.60;81.40;;;;;;5112332;28;20039;-70
2022/04/15 01:59:28;;;;;;;1.05;0.80;;;8.60;81.40;;;;;;5112565;28;20035;-70
2022/04/15 02:01:55;;;;;;;1.40;1.00;;;8.50;81.40;;;;;;5093778;28;20436;-70
2022/04/15 02:04:23;;;;;;;1.88;1.10;;;8.60;81.60;;;;;;5112103;28;20126;-71
2022/04/15 02:06:49;;;;;;;1.00;0.90;;;8.50;81.60;;;;;;5093767;28;20410;-70
2022/04/15 02:09:15;;;;;;;1.88;1.00;;;8.40;81.70;;;;;;5093969;28;20043;-70
2022/04/15 02:11:41;;;;;;;1.40;0.90;;;8.50;81.80;;;;;;5112238;28;20036;-70
2022/04/15 02:14:07;;;;;;;1.95;1.00;;;8.50;81.70;;;;;;5112053;28;20485;-70
2022/04/15 02:16:33;;;;;;;1.13;0.90;;;8.60;81.80;;;;;;5112308;28;20067;-70
2022/04/15 02:18:59;;;;;;;2.35;0.88;;;8.40;81.70;;;;;;5112318;28;20044;-70
2022/04/15 02:21:25;;;;;;;1.63;0.93;;;8.40;81.80;;;;;;5112046;28;20135;-70
2022/04/15 02:23:51;;;;;;;1.48;1.00;;;8.30;81.70;;;;;;5111999;28;20079;-69
2022/04/15 02:26:17;;;;;;;1.58;1.23;;;8.40;81.90;;;;;;5111712;28;20040;-70
2022/04/15 02:28:43;;;;;;;1.08;0.73;;;8.30;82.00;;;;;;5094348;28;20046;-70
2022/04/15 02:31:08;;;;;;;1.55;1.05;;;8.40;82.70;;;;;;5111731;28;20047;-70
2022/04/15 02:33:34;;;;;;;1.02;0.77;;;8.30;82.00;;;;;;5111622;28;20066;-69
2022/04/15 02:36:00;;;;;;;1.33;0.90;;;8.20;82.00;;;;;;5111630;28;20500;-70
2022/04/15 02:38:26;;;;;;;1.30;0.90;;;8.20;82.10;;;;;;5111982;28;20040;-70
2022/04/15 02:40:51;;;;;;;1.75;0.90;;;8.10;82.40;;;;;;5111730;28;20039;-70
2022/04/15 02:43:18;;;;;;;1.30;1.00;;;8.10;82.40;;;;;;5111600;28;20062;-70
2022/04/15 02:45:44;;;;;;;1.02;0.80;;;8.10;82.50;;;;;;5111545;28;20040;-70
2022/04/15 02:48:10;;;;;;;1.23;0.80;;;8.00;82.50;;;;;;5111909;28;20122;-70
2022/04/15 02:50:37;;;;;;;0.93;0.80;;;7.90;82.60;;;;;;5112579;28;20036;-70
2022/04/15 02:53:04;;;;;;;2.30;0.77;;;7.90;82.70;;;;;;5096684;28;20535;-70
2022/04/15 02:55:30;;;;;;;0.95;0.80;;;7.80;82.80;;;;;;5096628;28;20544;-70
2022/04/15 02:57:55;;;;;;;0.50;0.50;;;7.80;82.90;;;;;;5115543;28;20070;-70
2022/04/15 03:00:21;;;;;;;0.70;0.55;;;7.80;82.90;;;;;;5114920;28;20124;-70
2022/04/15 03:02:47;;;;;;;1.40;0.73;;;7.80;83.00;;;;;;5115215;28;20114;-69
2022/04/15 03:05:12;;;;;;;0.85;0.77;;;7.80;83.00;;;;;;5115358;28;20436;-70
2022/04/15 03:07:40;;;;;;;0.38;0.38;;;7.80;83.00;;;;;;5115078;28;20031;-70
2022/04/15 03:10:07;;;;;;;0.80;0.70;;;7.80;82.90;;;;;;5115314;28;20381;-70
2022/04/15 03:12:35;;;;;;;0.52;0.52;;;7.80;82.90;;;;;;5115022;28;20063;-69
2022/04/15 03:15:04;;;;;;;0.88;0.80;;;7.90;82.90;;;;;;5115301;28;20047;-70
2022/04/15 03:17:30;;;;;;;1.13;0.88;;;7.90;82.90;;;;;;5114944;28;20067;-70
2022/04/15 03:19:56;;;;;;;1.27;0.80;;;7.90;82.90;;;;;;5115059;28;20051;-70
2022/04/15 03:22:22;;;;;;;1.75;1.00;;;8.00;82.90;;;;;;5114650;28;20035;-69
2022/04/15 03:24:50;;;;;;;0.95;0.70;;;8.00;82.80;;;;;;5096350;28;20043;-70
2022/04/15 03:27:16;;;;;;;1.30;0.82;;;8.00;82.80;;;;;;5115144;28;20120;-70
2022/04/15 03:29:43;;;;;;;1.08;0.73;;;8.00;83.40;;;;;;5114369;28;20043;-70
2022/04/15 03:32:10;;;;;;;1.52;0.95;;;8.00;82.90;;;;;;5114434;28;20034;-70
2022/04/15 03:34:36;;;;;;;1.75;1.00;;;8.00;82.80;;;;;;5114304;28;20378;-70
2022/04/15 03:37:03;;;;;;;1.00;0.80;;;8.00;82.80;;;;;;5114516;28;20040;-70
2022/04/15 03:39:29;;;;;;;1.70;1.00;;;8.10;82.80;;;;;;5114876;28;20031;-70
2022/04/15 03:41:55;;;;;;;1.10;0.70;;;8.10;82.80;;;;;;5114854;28;20044;-70
2022/04/15 03:44:21;;;;;;;0.75;0.70;;;8.10;82.70;;;;;;5114225;28;20039;-70
2022/04/15 03:46:46;;;;;;;1.50;0.70;;;8.20;82.70;;;;;;5114284;28;20032;-69
2022/04/15 03:49:12;;;;;;;1.15;0.95;;;8.20;82.70;;;;;;5114394;28;20040;-69
2022/04/15 03:51:38;;;;;;;1.05;0.80;;;8.20;82.70;;;;;;5114337;28;20036;-70
2022/04/15 03:54:04;;;;;;;1.10;0.82;;;8.20;82.70;;;;;;5095632;28;20354;-69
2022/04/15 03:56:30;;;;;;;0.95;0.70;;;8.20;82.70;;;;;;5114000;28;20043;-69
2022/04/15 03:58:56;;;;;;;1.00;0.90;;;8.20;82.80;;;;;;5114296;28;20123;-70
2022/04/15 04:01:21;;;;;;;1.10;0.80;;;8.20;82.80;;;;;;5114310;28;20501;-69
2022/04/15 04:03:47;;;;;;;0.70;0.60;;;8.30;82.80;;;;;;5113243;28;20043;-70
2022/04/15 04:06:13;;;;;;;1.40;1.00;;;8.30;82.80;;;;;;5113931;28;20039;-70
2022/04/15 04:08:38;;;;;;;1.08;0.95;;;8.30;82.80;;;;;;5114652;28;20088;-69
2022/04/15 04:11:04;;;;;;;2.38;1.10;;;8.30;82.80;;;;;;5113949;28;20044;-70
2022/04/15 04:13:30;;;;;;;1.48;0.80;;;8.30;82.80;;;;;;5114149;28;20477;-70
2022/04/15 04:15:56;;;;;;;1.00;0.90;;;8.30;82.80;;;;;;5079121;28;20050;-70
2022/04/15 04:18:21;;;;;;;1.02;0.85;;;8.30;82.80;;;;;;5114307;28;20040;-70
2022/04/15 04:20:48;;;;;;;2.50;1.02;;;8.30;82.80;;;;;;5113913;28;20036;-70
2022/04/15 04:23:14;;;;;;;1.20;0.90;;;8.30;82.90;;;;;;5114064;28;20569;-70
2022/04/15 04:25:40;;;;;;;1.10;0.80;;;8.30;82.90;;;;;;5113997;28;20067;-70
2022/04/15 04:28:06;;;;;;;1.17;0.90;;;8.40;82.90;;;;;;5113794;28;20070;-69
2022/04/15 04:30:31;;;;;;;2.08;0.93;;;8.40;82.90;;;;;;5113771;28;20036;-69
2022/04/15 04:32:59;;;;;;;0.50;0.50;;;8.40;82.90;;;;;;5113987;28;20061;-69
2022/04/15 04:35:25;;;;;;;1.00;0.70;;;8.50;83.00;;;;;;5095277;28;20067;-70
2022/04/15 04:37:51;;;;;;;1.67;0.82;;;8.40;82.90;;;;;;5113472;28;20119;-69
2022/04/15 04:40:17;;;;;;;1.20;0.82;;;8.50;83.00;;;;;;5113664;28;20433;-70
2022/04/15 04:42:46;;;;;;;1.70;0.90;;;8.50;83.00;;;;;;5114241;28;20093;-70
2022/04/15 04:45:12;;;;;;;0.98;0.85;;;8.50;83.00;;;;;;5096218;28;20084;-69
2022/04/15 04:47:40;;;;;;;0.80;0.70;;;8.40;82.90;;;;;;5113632;28;20044;-69
2022/04/15 04:50:09;;;;;;;1.25;0.90;;;8.50;83.00;;;;;;5095109;28;20046;-69
2022/04/15 04:52:36;;;;;;;0.70;0.60;;;8.40;83.00;;;;;;5095662;28;20039;-70
2022/04/15 04:55:02;;;;;;;0.65;0.63;;;8.40;83.10;;;;;;5113343;28;20044;-69
2022/04/15 04:57:28;;;;;;;0.77;0.68;;;8.40;83.20;;;;;;5113284;28;20046;-69
2022/04/15 04:59:56;;;;;;;0.65;0.60;;;8.30;83.30;;;;;;5113562;28;20481;-69
2022/04/15 05:02:22;;;;;;;0.90;0.80;;;8.40;83.40;;;;;;5113222;28;20097;-69
2022/04/15 05:04:48;;;;;;;1.05;0.65;;;8.40;83.40;;;;;;5113964;28;20044;-70
2022/04/15 05:07:14;;;;;;;0.88;0.70;;;8.40;83.40;;;;;;5113837;28;20038;-70
2022/04/15 05:09:42;;;;;;;0.93;0.57;;;8.40;83.50;;;;;;5095089;28;20039;-70
2022/04/15 05:12:10;;;;;;;0.52;0.52;;;8.40;83.40;;;;;;5113022;28;20059;-69
2022/04/15 05:14:36;;;;;;;1.20;0.60;;;8.30;83.30;;;;;;5094771;28;20040;-68
2022/04/15 05:17:03;;;;;;;0.70;0.60;;;8.30;83.30;;;;;;5094842;28;20148;-69
2022/04/15 05:19:28;;;;;;;0.52;0.52;;;8.40;83.40;;;;;;5113149;28;20470;-70
2022/04/15 05:21:54;;;;;;;0.95;0.80;;;8.40;83.40;;;;;;5112999;28;20032;-69
2022/04/15 05:24:19;;;;;;;0.82;0.60;;;8.30;83.30;;;;;;5112691;28;20027;-70
2022/04/15 05:26:45;;;;;;;0.80;0.80;;;8.30;83.30;;;;;;5112976;28;20047;-69
2022/04/15 05:29:11;;;;;;;1.55;0.68;;;8.30;83.40;;;;;;5112803;28;20038;-69
2022/04/15 05:31:37;;;;;;;0.65;0.60;;;8.30;83.50;;;;;;5112914;28;20042;-70
2022/04/15 05:34:03;;;;;;;1.30;0.80;;;8.30;83.50;;;;;;5113091;28;20146;-69
2022/04/15 05:36:29;;;;;;;1.45;0.70;;;8.30;83.50;;;;;;5112925;28;20100;-69
2022/04/15 05:38:55;;;;;;;1.42;0.90;;;8.30;83.50;;;;;;5078367;28;20044;-69
2022/04/15 05:41:20;;;;;;;1.65;1.10;;;8.30;83.40;;;;;;5112932;28;20456;-68
2022/04/15 05:43:46;;;;;;;1.73;0.80;;;8.30;83.50;;;;;;5094470;28;20043;-69
2022/04/15 05:46:13;;;;;;;1.20;0.82;;;8.30;83.40;;;;;;5113063;28;20040;-69
2022/04/15 05:48:39;;;;;;;0.70;0.70;;;8.30;83.40;;;;;;5112525;28;20082;-69
2022/04/15 05:51:05;;;;;;;1.13;0.80;;;8.30;83.40;;;;;;5112625;28;20039;-69
2022/04/15 05:53:31;;;;;;;1.00;0.90;;;8.40;84.00;;;;;;5095106;28;20051;-69
2022/04/15 05:55:58;;;;;;;1.15;0.80;;;8.30;83.30;;;;;;5112526;28;20059;-69
2022/04/15 05:58:26;;;;;;;1.20;0.88;;;8.40;83.30;;;;;;5112688;28;20518;-69
2022/04/15 06:00:52;;;;;;;0.60;0.60;;;8.40;83.30;;;;;;5112618;28;20043;-69
2022/04/15 06:03:20;;;;;;;0.50;0.50;;;8.50;83.30;;;;;;5112379;28;20093;-69
2022/04/15 06:05:47;;;;;;;0.88;0.80;;;8.60;83.20;;;;;;5112942;28;20473;-69
2022/04/15 06:08:13;;;;;;;0.82;0.65;;;8.50;83.00;;;;;;5112754;28;20046;-70
2022/04/15 06:10:39;;;;;;;0.57;0.57;;;8.60;82.90;;;;;;5094120;28;20089;-69
2022/04/15 06:13:09;;;;;;;0.63;0.57;;;8.60;82.80;;;;;;5112173;28;20435;-69
2022/04/15 06:15:41;;;;;;;0.80;0.73;;;8.70;82.70;;;;;;5112341;28;20424;-68
2022/04/15 06:18:07;;;;;;;1.25;0.75;;;8.70;82.60;;;;;;5111925;28;20066;-69
2022/04/15 06:20:32;;;;;;;0.70;0.70;;;8.80;82.50;;;;;;5111769;28;20050;-70
2022/04/15 06:22:58;;;;;;;0.50;0.50;;;8.80;82.40;;;;;;5112056;28;20048;-69
2022/04/15 06:25:24;;;;;;;0.60;0.60;;;8.80;82.30;;;;;;5075195;28;20040;-69
2022/04/15 06:27:51;;;;;;;0.52;0.52;;;8.90;82.20;;;;;;5115842;28;20054;-69
2022/04/15 06:30:19;;;;;;;0.45;0.45;;;8.90;82.00;;;;;;5115729;28;20089;-70
2022/04/15 06:32:45;;;;;;;0.93;0.60;;;9.00;81.90;;;;;;5097945;28;20480;-69
2022/04/15 06:35:10;;;;;;;0.60;0.50;;;9.00;81.80;;;;;;5115686;28;20035;-69
2022/04/15 06:37:36;;;;;;;0.65;0.50;;;9.10;81.90;;;;;;5115425;28;20550;-69
2022/04/15 06:40:02;;;;;;;0.50;0.40;;;9.10;81.70;;;;;;5115520;28;20066;-69
2022/04/15 06:42:30;;;;;;;0.63;0.55;;;9.20;81.70;;;;;;5115785;28;20036;-69
2022/04/15 06:44:58;;;;;;;0.70;0.40;;;9.20;81.60;;;;;;5115962;28;20047;-69
2022/04/15 06:47:25;;;;;;;0.43;0.43;;;9.30;81.50;;;;;;5115555;28;20078;-69
2022/04/15 06:49:50;;;;;;;0.40;0.40;;;9.30;81.30;;;;;;5115263;28;20070;-69
2022/04/15 06:52:17;;;;;;;0.55;0.50;;;9.40;81.30;;;;;;5115343;28;20069;-69
2022/04/15 06:54:44;;;;;;;1.30;0.55;;;9.40;81.20;;;;;;5063738;28;20035;-69
2022/04/15 06:57:09;;;;;;;0.70;0.45;;;9.40;81.10;;;;;;5080047;28;20071;-69
2022/04/15 06:59:35;;;;;;;0.47;0.43;;;9.50;81.00;;;;;;5115236;28;20067;-68
2022/04/15 07:02:01;;;;;;;0.43;0.43;;;9.60;80.90;;;;;;5080349;28;20035;-70
2022/04/15 07:04:28;;;;;;;0.75;0.55;;;9.50;80.80;;;;;;5115464;28;20039;-69
2022/04/15 07:06:54;;;;;;;0.73;0.50;;;9.60;80.60;;;;;;5115047;28;20446;-70
2022/04/15 07:09:20;;;;;;;0.60;0.60;;;9.60;80.70;;;;;;5115223;28;20089;-71
2022/04/15 07:11:46;;;;;;;0.50;0.50;;;9.70;81.30;;;;;;5115401;28;20039;-70
2022/04/15 07:14:12;;;;;;;0.60;0.60;;;9.80;80.60;;;;;;5115317;28;20035;-70
2022/04/15 07:16:37;;;;;;;0.47;0.47;;;9.80;80.40;;;;;;5114799;28;20400;-70
2022/04/15 07:19:07;;;;;;;0.40;0.40;;;9.80;80.40;;;;;;5114794;28;20039;-71
2022/04/15 07:21:34;;;;;;;0.57;0.50;;;9.80;80.40;;;;;;5095023;28;20043;-72
2022/04/15 07:24:00;;;;;;;0.40;0.40;;;9.90;80.20;;;;;;5114618;28;20064;-71
2022/04/15 07:26:26;;;;;;;0.40;0.40;;;10.00;79.90;;;;;;5114488;28;20505;-72
2022/04/15 07:28:51;;;;;;;0.40;0.40;;;10.20;79.80;;;;;;5096341;28;20047;-71
2022/04/15 07:31:17;;;;;;;0.40;0.40;;;10.30;79.60;;;;;;5114405;28;20475;-71
2022/04/15 07:33:43;;;;;;;0.70;0.45;;;10.30;79.40;;;;;;5114388;28;20035;-69
2022/04/15 07:36:31;;;;;;;0.30;0.30;;;10.30;79.20;;;;;;5114364;28;20027;-68
2022/04/15 07:38:54;;;;;;;0.30;0.30;;;10.40;79.20;;;;;;5114217;28;20040;-70
2022/04/15 07:41:20;;;;;;;0.40;0.40;;;10.50;79.10;;;;;;5096516;28;20393;-70
2022/04/15 07:43:48;;;;;;;0.30;0.30;;;10.50;79.00;;;;;;5114895;28;20605;-70
2022/04/15 07:46:13;;;;;;;0.30;0.30;;;10.50;79.10;;;;;;5114286;28;20047;-70
2022/04/15 07:48:39;;;;;;;0.32;0.32;;;10.40;79.00;;;;;;5114727;28;20039;-70
2022/04/15 07:51:05;;;;;;;0.30;0.30;;;10.40;79.10;;;;;;5096006;28;20455;-70
2022/04/15 07:53:30;;;;;;;0.35;0.30;;;10.40;79.20;;;;;;5114051;28;20035;-69
2022/04/15 07:55:56;;;;;;;0.30;0.30;;;10.30;79.30;;;;;;5114530;28;20031;-69
2022/04/15 07:58:22;;;;;;;0.40;0.40;;;10.20;79.40;;;;;;5095847;28;20031;-69
2022/04/15 08:00:47;;;;;;;0.20;0.20;;;10.20;79.60;;;;;;5114514;28;20481;-69
2022/04/15 08:03:13;;;;;;;0.82;0.40;;;10.20;79.60;;;;;;5114633;28;20044;-69
2022/04/15 08:05:38;;;;;;;0.35;0.35;;;10.20;79.60;;;;;;5062212;28;20047;-69
2022/04/15 08:08:04;;;;;;;0.35;0.35;;;10.30;79.70;;;;;;5096072;28;20494;-69
2022/04/15 08:10:30;;;;;;;0.25;0.20;;;10.30;79.50;;;;;;5095861;28;20401;-69
2022/04/15 08:12:56;;;;;;;0.30;0.30;;;10.40;79.60;;;;;;5078663;28;20043;-70
2022/04/15 08:15:22;;;;;;;0.30;0.30;;;10.30;79.60;;;;;;5113925;28;20040;-69
2022/04/15 08:17:48;;;;;;;0.47;0.30;;;10.20;79.50;;;;;;5113695;28;20396;-69
2022/04/15 08:20:14;;;;;;;0.55;0.40;;;10.30;79.60;;;;;;5113743;28;20146;-71
2022/04/15 08:22:41;;;;;;;0.40;0.40;;;10.40;79.60;;;;;;5095901;28;20084;-71
2022/04/15 08:25:07;;;;;;;0.30;0.30;;;10.40;79.50;;;;;;5095465;28;20039;-71
2022/04/15 08:27:33;;;;;;;0.30;0.30;;;10.40;79.50;;;;;;5113859;28;20501;-71
2022/04/15 08:29:59;;;;;;;0.40;0.40;;;10.40;79.50;;;;;;5095021;28;20069;-71
2022/04/15 08:32:32;;;;;;;1.40;0.57;;;10.40;79.40;;;;;;5095789;28;20081;-71
2022/04/15 08:35:02;;;;;;;0.35;0.30;;;10.40;79.40;;;;;;5095341;28;20039;-71
2022/04/15 08:37:28;;;;;;;0.30;0.30;;;10.50;79.40;;;;;;5113470;28;20044;-71
2022/04/15 08:39:54;;;;;;;0.30;0.30;;;10.50;79.50;;;;;;5095681;28;20092;-72
2022/04/15 08:42:21;;;;;;;0.20;0.20;;;10.50;79.40;;;;;;5095404;28;20374;-72
2022/04/15 08:44:50;;;;;;;0.35;0.22;;;10.50;79.40;;;;;;5094950;28;20536;-71
2022/04/15 08:47:16;;;;;;;0.30;0.30;;;10.40;79.40;;;;;;5114095;28;20039;-71
2022/04/15 08:49:42;;;;;;;0.30;0.30;;;10.50;79.50;;;;;;5113486;28;20472;-71
2022/04/15 08:52:11;;;;;;;0.30;0.30;;;10.40;79.50;;;;;;5095360;28;20043;-71
2022/04/15 08:54:37;;;;;;;0.30;0.30;;;10.50;79.60;;;;;;5113274;28;20084;-71
2022/04/15 08:57:04;;;;;;;0.38;0.30;;;10.50;79.50;;;;;;5113916;28;20556;-71
2022/04/15 08:59:30;;;;;;;0.77;0.38;;;10.50;79.50;;;;;;5113335;28;20059;-72
2022/04/15 09:01:55;;;;;;;0.77;0.40;;;10.40;79.50;;;;;;5113841;28;20036;-71
2022/04/15 09:04:21;;;;;;;0.30;0.30;;;10.50;79.60;;;;;;5095199;28;20040;-71
2022/04/15 09:06:55;;;;;;;0.63;0.50;;;10.50;79.60;;;;;;5095158;28;20127;-70
2022/04/15 09:09:20;;;;;;;0.70;0.38;;;10.60;79.50;;;;;;5078233;28;20134;-70
2022/04/15 09:11:49;;;;;;;0.60;0.60;;;10.60;79.40;;;;;;5113060;28;20173;-71
2022/04/15 09:14:15;;;;;;;0.45;0.35;;;10.60;79.30;;;;;;5113554;28;20063;-71
2022/04/15 09:16:45;;;;;;;0.30;0.30;;;10.60;79.30;;;;;;5078041;28;20088;-71
2022/04/15 09:19:12;;;;;;;0.38;0.38;;;10.60;79.30;;;;;;5062038;28;20035;-72
2022/04/15 09:21:40;;;;;;;0.52;0.52;;;10.60;79.40;;;;;;5077993;28;20116;-69
2022/04/15 09:24:07;;;;;;;0.77;0.45;;;10.60;79.50;;;;;;5077787;28;20040;-70
2022/04/15 09:26:35;;;;;;;0.60;0.50;;;10.60;79.50;;;;;;5094637;28;20042;-71
2022/04/15 09:29:01;;;;;;;0.47;0.47;;;10.60;79.50;;;;;;5077918;28;20477;-72
2022/04/15 09:31:27;;;;;;;0.63;0.40;;;10.60;79.50;;;;;;5077560;28;20065;-71
2022/04/15 09:33:57;;;;;;;0.28;0.28;;;10.60;79.30;;;;;;5094640;28;20190;-72
2022/04/15 09:36:25;;;;;;;0.40;0.40;;;10.70;79.50;;;;;;5095093;28;20039;-70
2022/04/15 09:38:57;;;;;;;0.20;0.20;;;10.80;79.30;;;;;;5112542;28;20558;-72
2022/04/15 09:41:24;;;;;;;0.57;0.50;;;10.80;79.30;;;;;;5113110;28;20071;-73
2022/04/15 09:43:52;;;;;;;0.35;0.35;;;10.80;79.10;;;;;;5112676;28;20039;-73
2022/04/15 09:46:19;;;;;;;0.40;0.40;;;10.90;79.20;;;;;;5077694;28;20070;-72
2022/04/15 09:49:05;;;;;;;1.02;0.50;;;10.80;79.10;;;;;;5077390;28;20122;-72
2022/04/15 09:51:35;;;;;;;0.52;0.52;;;10.80;79.10;;;;;;5078678;28;20051;-72
2022/04/15 09:54:04;;;;;;;0.38;0.38;;;10.80;79.10;;;;;;5078167;28;20039;-73
2022/04/15 09:56:33;;;;;;;0.60;0.50;;;10.90;79.10;;;;;;5094840;28;20489;-70
2022/04/15 09:59:05;;;;;;;0.70;0.60;;;10.80;79.10;;;;;;5094383;28;20462;-70
2022/04/15 10:01:33;;;;;;;0.50;0.40;;;10.90;79.20;;;;;;5114904;28;20054;-70
2022/04/15 10:03:59;;;;;;;0.55;0.55;;;10.80;79.00;;;;;;5097927;28;20050;-69
2022/04/15 10:06:27;;;;;;;0.30;0.30;;;10.90;79.10;;;;;;5097979;28;20509;-69
2022/04/15 10:08:54;;;;;;;0.63;0.50;;;10.90;78.90;;;;;;5116532;28;20052;-69
2022/04/15 10:11:20;;;;;;;0.50;0.45;;;11.00;79.10;;;;;;5097831;28;20473;-69
2022/04/15 10:13:46;;;;;;;0.60;0.50;;;10.90;79.00;;;;;;5116275;28;20031;-70
2022/04/15 10:16:13;;;;;;;0.50;0.50;;;10.90;79.00;;;;;;5115551;28;20048;-71
2022/04/15 10:18:40;;;;;;;0.60;0.60;;;11.00;78.90;;;;;;5080663;28;20035;-71
2022/04/15 10:21:08;;;;;;;0.82;0.50;;;11.00;78.80;;;;;;5064104;28;20035;-72
2022/04/15 10:23:34;;;;;;;0.43;0.43;;;11.00;78.90;;;;;;5095727;28;20545;-70
2022/04/15 10:26:03;;;;;;;0.43;0.43;;;11.00;78.80;;;;;;5080452;28;20084;-69
2022/04/15 10:28:42;;;;;;;0.50;0.50;;;11.00;78.80;;;;;;5097442;28;20099;-69
2022/04/15 10:31:11;;;;;;;0.77;0.63;;;11.10;78.90;;;;;;5078702;28;20040;-70
2022/04/15 10:33:39;;;;;;;0.60;0.47;;;11.00;78.70;;;;;;5080520;28;20036;-69
2022/04/15 10:36:17;;;;;;;0.95;0.70;;;11.10;78.70;;;;;;5113040;28;20497;-70
2022/04/15 10:39:17;;;;;;;0.90;0.50;;;11.10;78.70;;;;;;5114567;28;20090;-72
2022/04/15 10:42:01;;;;;;;0.70;0.50;;;11.10;78.60;;;;;;5115310;28;20054;-71
2022/04/15 10:44:30;;;;;;;0.47;0.47;;;11.10;78.70;;;;;;5114475;28;20116;-71
2022/04/15 10:47:09;;;;;;;0.45;0.45;;;11.10;78.60;;;;;;5115987;28;20128;-71
2022/04/15 10:49:37;;;;;;;0.43;0.43;;;11.10;78.70;;;;;;5097807;28;20052;-71
2022/04/15 10:52:16;;;;;;;0.90;0.70;;;11.10;78.70;;;;;;5080742;28;20035;-71
2022/04/15 10:54:45;;;;;;;0.45;0.40;;;11.10;78.60;;;;;;5095746;28;20039;-71
2022/04/15 10:57:14;;;;;;;0.60;0.60;;;11.20;78.60;;;;;;5115259;28;20133;-71
2022/04/15 11:02:51;;;;;;;1.48;0.65;;;11.20;78.50;;;;;;5096607;28;20039;-71
2022/04/15 11:05:53;;;;;;;0.70;0.60;;;11.30;78.50;;;;;;5096066;28;20078;-71
2022/04/15 11:08:19;;;;;;;;;;;11.30;78.30;;;;;;5115004;28;20092;-71
2022/04/15 11:11:01;;;;;;;0.50;0.50;;;11.40;78.20;;;;;;5096808;28;19916;-73
2022/04/15 11:14:04;;;;;;;0.88;0.50;;;11.50;78.10;;;;;;5063999;28;20035;-73
2022/04/15 11:16:47;;;;;;;2.15;0.75;;;11.50;77.90;;;;;;5085899;28;20089;-74
2022/04/15 11:19:23;;;;;;;1.08;0.80;;;11.50;77.90;;;;;;5097376;28;20040;-74
2022/04/15 11:21:50;;;;;;;0.70;0.65;;;11.50;77.90;;;;;;5114571;28;20123;-73
2022/04/15 11:24:27;;;;;;;0.70;0.60;;;11.50;77.90;;;;;;5114955;28;20489;-71
2022/04/15 11:26:58;;;;;;;0.82;0.80;;;11.50;77.90;;;;;;5096705;28;20074;-72
2022/04/15 11:29:29;;;;;;;;;;;11.60;77.90;;;;;;5115875;28;20036;-73
2022/04/15 11:31:58;;;;;;;0.50;0.50;;;11.60;77.90;;;;;;5114930;28;19922;-73
2022/04/15 11:34:24;;;;;;;0.60;0.60;;;11.60;77.80;;;;;;5079831;28;20096;-73
2022/04/15 11:36:53;;;;;;;0.50;0.50;;;11.60;77.80;;;;;;5114901;28;20477;-74
2022/04/15 11:39:21;;;;;;;0.50;0.50;;;11.60;77.90;;;;;;5114556;28;20043;-73
2022/04/15 11:41:50;;;;;;;0.60;0.60;;;11.70;77.80;;;;;;5114818;28;20096;-71
2022/04/15 11:44:17;;;;;;;0.77;0.60;;;11.60;77.70;;;;;;5114664;28;20044;-71
2022/04/15 11:46:46;;;;;;;1.15;0.88;;;11.60;77.90;;;;;;5094312;28;20077;-73
2022/04/15 11:49:18;;;;;;;0.77;0.70;;;11.60;77.90;;;;;;5114735;28;20047;-74
2022/04/15 11:51:46;;;;;;;0.82;0.73;;;11.60;77.80;;;;;;5097145;28;20124;-70
2022/04/15 11:54:13;;;;;;;1.58;0.80;;;11.60;77.80;;;;;;5096102;28;20042;-71
2022/04/15 11:56:39;;;;;;;1.27;0.88;;;11.70;78.00;;;;;;5114201;28;20043;-70
2022/04/15 11:59:09;;;;;;;1.33;0.80;;;11.60;77.90;;;;;;5114357;28;20043;-70
2022/04/15 12:01:36;;;;;;;0.95;0.80;;;11.60;77.90;;;;;;5096274;28;20040;-71
2022/04/15 12:04:03;;;;;;;1.65;0.70;;;11.70;78.00;;;;;;5114716;28;20067;-71
2022/04/15 12:06:30;;;;;;;0.90;0.80;;;11.60;77.90;;;;;;5114427;28;20118;-70
2022/04/15 12:08:57;;;;;;;0.80;0.63;;;11.60;77.90;;;;;;5096279;28;20102;-70
2022/04/15 12:11:24;;;;;;;0.80;0.80;;;11.70;77.90;;;;;;5079310;28;20038;-70
2022/04/15 12:13:59;;;;;;;0.63;0.63;;;11.70;77.80;;;;;;5113812;28;20092;-69
2022/04/15 12:16:27;;;;;;;0.70;0.65;;;11.80;77.70;;;;;;5113319;28;20504;-69
2022/04/15 12:18:56;;;;;;;1.08;0.80;;;11.90;77.60;;;;;;5114241;28;20050;-68
2022/04/15 12:21:22;;;;;;;1.35;0.60;;;12.00;77.40;;;;;;5113884;28;20139;-69
2022/04/15 12:24:06;;;;;;;0.82;0.60;;;12.00;77.30;;;;;;5112971;28;20054;-69
2022/04/15 12:26:42;;;;;;;0.60;0.60;;;12.00;77.30;;;;;;5112099;28;20047;-69
2022/04/15 12:31:53;;;;;;;0.60;0.57;;;12.10;77.10;;;;;;5113682;28;20408;-68
2022/04/15 12:34:31;;;;;;;0.80;0.68;;;12.20;77.00;;;;;;5095421;28;20032;-69
2022/04/15 12:36:57;;;;;;;1.02;0.60;;;12.30;76.90;;;;;;5094770;28;20493;-69
2022/04/15 12:39:23;;;;;;;1.13;0.70;;;12.40;76.80;;;;;;5095927;28;20043;-68
2022/04/15 12:41:49;;;;;;;0.80;0.60;;;12.40;76.70;;;;;;5113710;28;20438;-68
2022/04/15 12:44:19;;;;;;;0.80;0.80;;;12.50;76.50;;;;;;5113490;28;20043;-68
2022/04/15 12:46:48;;;;;;;0.70;0.70;;;12.50;76.30;;;;;;5113439;28;20114;-69
2022/04/15 12:49:25;;;;;;;0.93;0.80;;;12.60;76.30;;;;;;5113259;28;20499;-68
2022/04/15 12:51:51;;;;;;;0.95;0.65;;;12.60;76.30;;;;;;5113412;28;20036;-68
2022/04/15 12:54:17;;;;;;;1.58;1.00;;;12.60;76.10;;;;;;5113295;28;20054;-71
2022/04/15 12:56:58;;;;;;;0.95;0.75;;;12.60;76.00;;;;;;5094952;28;20044;-71
2022/04/15 12:59:26;;;;;;;1.08;0.80;;;12.50;76.20;;;;;;5111851;28;20096;-71
2022/04/15 13:01:52;;;;;;;0.80;0.73;;;12.50;76.60;;;;;;5094940;28;20051;-71
2022/04/15 13:04:18;;;;;;;0.90;0.77;;;12.60;76.60;;;;;;5113781;28;20472;-70